Time;durP1;ratioP1;P1;durP2;ratioP2;P2;SDS_P1;SDS_P2;PMS_P1;PMS_P2;Temp;Humidity;BMP_temperature;BMP_pressure;BME280_temperature;BME280_humidity;BME280_pressure;Samples;Min_cycle;Max_cycle;Signal;HPM_P1;HPM_P2
2023/08/19 00:01:34;;;;;;;7.60;3.72;;;20.70;99.90;;;;;;5072867;28;20031;-86
2023/08/19 00:04:00;;;;;;;8.27;3.67;;;20.70;99.90;;;;;;5062906;28;20040;-86
2023/08/19 00:06:42;;;;;;;4.70;2.88;;;20.70;99.90;;;;;;5080347;28;20028;-86
2023/08/19 00:09:09;;;;;;;6.95;3.53;;;20.60;99.90;;;;;;5056934;28;20043;-86
2023/08/19 00:11:36;;;;;;;7.22;3.42;;;20.60;99.90;;;;;;5102004;28;20025;-86
2023/08/19 00:14:03;;;;;;;4.47;3.35;;;20.50;99.90;;;;;;5059459;28;20032;-85
2023/08/19 00:16:29;;;;;;;7.40;3.50;;;20.50;99.90;;;;;;5076984;28;20028;-86
2023/08/19 00:19:04;;;;;;;7.35;3.75;;;20.50;99.90;;;;;;5075104;28;20503;-86
2023/08/19 00:21:30;;;;;;;8.35;3.60;;;20.50;99.90;;;;;;5080490;28;20471;-86
2023/08/19 00:23:57;;;;;;;6.43;3.60;;;20.50;99.90;;;;;;5076860;28;20042;-86
2023/08/19 00:26:25;;;;;;;7.47;3.90;;;20.50;99.90;;;;;;5075531;28;20059;-85
2023/08/19 00:28:53;;;;;;;6.32;3.95;;;20.50;99.90;;;;;;5066044;28;20112;-85
2023/08/19 00:31:19;;;;;;;9.85;4.75;;;20.50;99.90;;;;;;5059735;28;20538;-85
2023/08/19 00:33:45;;;;;;;6.47;3.63;;;20.50;99.90;;;;;;5060212;28;20120;-86
2023/08/19 00:36:10;;;;;;;9.60;4.60;;;20.60;99.90;;;;;;5054680;28;20168;-86
2023/08/19 00:38:37;;;;;;;5.07;3.25;;;20.50;99.90;;;;;;5054970;28;20070;-86
2023/08/19 00:41:03;;;;;;;8.00;3.80;;;20.60;99.90;;;;;;5056003;28;20460;-86
2023/08/19 00:43:30;;;;;;;6.00;3.67;;;20.60;99.90;;;;;;5054493;28;20644;-85
2023/08/19 00:45:55;;;;;;;7.93;4.18;;;20.50;99.90;;;;;;5076913;28;20031;-86
2023/08/19 00:48:23;;;;;;;8.70;4.03;;;20.50;99.90;;;;;;5075410;28;20441;-86
2023/08/19 00:50:49;;;;;;;6.43;3.75;;;20.40;99.90;;;;;;5061437;28;20023;-86
2023/08/19 00:53:15;;;;;;;13.48;4.05;;;20.40;99.90;;;;;;5060215;28;20021;-86
2023/08/19 00:55:41;;;;;;;9.32;4.30;;;20.30;99.90;;;;;;5057843;28;20029;-86
2023/08/19 00:58:08;;;;;;;8.75;4.13;;;20.30;99.90;;;;;;5076520;28;20047;-86
2023/08/19 01:00:34;;;;;;;11.02;4.53;;;20.20;99.90;;;;;;5073422;28;20484;-86
2023/08/19 01:03:01;;;;;;;6.90;3.80;;;20.30;99.90;;;;;;5063237;28;20364;-86
2023/08/19 01:05:47;;;;;;;15.43;4.75;;;20.20;99.90;;;;;;5075226;28;20025;-85
2023/08/19 01:08:21;;;;;;;6.97;3.90;;;20.20;99.90;;;;;;5075515;28;20031;-86
2023/08/19 01:10:57;;;;;;;7.70;4.40;;;20.20;99.90;;;;;;5066244;28;20035;-86
2023/08/19 01:13:33;;;;;;;7.10;4.50;;;20.20;99.90;;;;;;5059421;28;20036;-86
2023/08/19 01:16:10;;;;;;;6.22;3.72;;;20.20;99.90;;;;;;5054227;28;20400;-86
2023/08/19 01:18:38;;;;;;;15.77;4.65;;;20.10;99.90;;;;;;5064687;28;20487;-86
2023/08/19 01:21:04;;;;;;;7.70;4.32;;;20.10;99.90;;;;;;5063461;28;20387;-86
2023/08/19 01:23:35;;;;;;;6.20;4.05;;;20.00;99.90;;;;;;5077067;28;20032;-86
2023/08/19 01:26:01;;;;;;;6.47;4.28;;;19.90;99.90;;;;;;5065992;28;20161;-86
2023/08/19 01:28:27;;;;;;;7.80;4.70;;;19.80;99.90;;;;;;5078700;28;20103;-86
2023/08/19 01:30:53;;;;;;;8.85;4.10;;;19.70;99.90;;;;;;5083877;28;20032;-86
2023/08/19 01:33:19;;;;;;;8.77;4.43;;;19.60;99.90;;;;;;5061160;28;20032;-86
2023/08/19 01:36:13;;;;;;;6.13;4.20;;;19.50;99.90;;;;;;5081469;28;20027;-85
2023/08/19 01:39:18;;;;;;;;;;;19.50;99.90;;;;;;5062793;28;20054;-85
2023/08/19 01:41:54;;;;;;;9.02;4.85;;;19.40;99.90;;;;;;5035549;28;19909;-85
2023/08/19 01:44:20;;;;;;;8.80;4.90;;;19.40;99.90;;;;;;5076770;28;20040;-86
2023/08/19 01:46:46;;;;;;;6.20;4.10;;;19.30;99.90;;;;;;5064007;28;20415;-86
2023/08/19 01:49:12;;;;;;;7.43;4.53;;;19.30;99.90;;;;;;5060051;28;20031;-86
2023/08/19 01:51:37;;;;;;;5.72;4.68;;;19.30;99.90;;;;;;5077312;28;20116;-85
2023/08/19 01:54:04;;;;;;;7.07;4.78;;;19.30;99.90;;;;;;5065425;28;20082;-86
2023/08/19 01:56:29;;;;;;;6.47;4.10;;;19.30;99.90;;;;;;5062445;28;20040;-86
2023/08/19 01:58:56;;;;;;;10.70;5.07;;;19.30;99.90;;;;;;5060486;28;20000;-85
2023/08/19 02:01:22;;;;;;;7.57;4.28;;;19.30;99.90;;;;;;5081120;28;20017;-86
2023/08/19 02:03:48;;;;;;;5.95;4.05;;;19.30;99.90;;;;;;5065933;28;20075;-86
2023/08/19 02:06:13;;;;;;;7.82;4.03;;;19.30;99.90;;;;;;5081862;28;20024;-86
2023/08/19 02:08:39;;;;;;;10.45;4.70;;;19.20;99.90;;;;;;5059097;28;20132;-86
2023/08/19 02:11:05;;;;;;;11.13;4.50;;;19.20;99.90;;;;;;5081765;28;20553;-86
2023/08/19 02:13:30;;;;;;;7.10;4.90;;;19.20;99.90;;;;;;5061790;28;20515;-86
2023/08/19 02:15:56;;;;;;;7.50;4.50;;;19.20;99.90;;;;;;5067131;28;20012;-86
2023/08/19 02:18:22;;;;;;;10.90;4.57;;;19.10;99.90;;;;;;5081239;28;20031;-86
2023/08/19 02:20:48;;;;;;;7.78;3.95;;;19.10;99.90;;;;;;5081959;28;20025;-86
2023/08/19 02:23:14;;;;;;;8.02;4.35;;;19.10;99.90;;;;;;5062047;28;20040;-86
2023/08/19 02:25:40;;;;;;;11.55;4.53;;;19.10;99.90;;;;;;5067517;28;20028;-85
2023/08/19 02:28:05;;;;;;;5.45;4.03;;;19.30;99.90;;;;;;5079817;28;20036;-86
2023/08/19 02:30:32;;;;;;;6.30;4.43;;;19.40;99.90;;;;;;5061505;28;20123;-86
2023/08/19 02:33:03;;;;;;;8.70;4.68;;;19.50;99.90;;;;;;5061295;28;20388;-86
2023/08/19 02:35:29;;;;;;;7.15;4.40;;;19.70;99.90;;;;;;5073661;28;20029;-85
2023/08/19 02:37:54;;;;;;;7.60;4.90;;;19.80;99.90;;;;;;5073336;28;20024;-86
2023/08/19 02:40:20;;;;;;;9.27;4.32;;;20.00;99.90;;;;;;5065137;28;20078;-86
2023/08/19 02:43:11;;;;;;;8.52;4.15;;;20.10;99.90;;;;;;5058044;28;20032;-86
2023/08/19 02:45:40;;;;;;;8.70;4.53;;;20.20;99.90;;;;;;5063637;28;20024;-86
2023/08/19 02:48:12;;;;;;;5.63;4.30;;;20.30;99.90;;;;;;5073247;28;20119;-86
2023/08/19 02:50:38;;;;;;;6.90;4.03;;;20.30;99.90;;;;;;5057208;28;20025;-86
2023/08/19 02:53:03;;;;;;;8.70;4.38;;;20.30;99.90;;;;;;5079734;28;20476;-86
2023/08/19 02:55:29;;;;;;;8.57;4.15;;;20.30;99.90;;;;;;5077265;28;20027;-86
2023/08/19 02:57:55;;;;;;;9.13;4.00;;;20.30;99.90;;;;;;5081823;28;20020;-86
2023/08/19 03:00:20;;;;;;;8.20;3.83;;;20.30;99.90;;;;;;5061739;28;20013;-86
2023/08/19 03:02:49;;;;;;;6.72;4.38;;;20.30;99.90;;;;;;5067249;28;20016;-86
2023/08/19 03:05:15;;;;;;;8.38;4.22;;;20.40;99.90;;;;;;5060113;28;20056;-86
2023/08/19 03:07:40;;;;;;;7.05;3.97;;;20.40;99.90;;;;;;5063976;28;20050;-86
2023/08/19 03:10:07;;;;;;;6.57;4.45;;;20.40;99.90;;;;;;5060878;28;20020;-86
2023/08/19 03:12:33;;;;;;;8.40;4.18;;;20.50;99.90;;;;;;5066663;28;20023;-86
2023/08/19 03:14:58;;;;;;;6.50;4.05;;;20.60;99.90;;;;;;5056122;28;20123;-86
2023/08/19 03:17:24;;;;;;;6.32;4.03;;;20.60;99.90;;;;;;5059463;28;20089;-86
2023/08/19 03:19:50;;;;;;;4.65;3.80;;;20.60;99.90;;;;;;5079275;28;20028;-86
2023/08/19 03:22:16;;;;;;;8.32;4.30;;;20.50;99.90;;;;;;5059779;28;20059;-86
2023/08/19 03:24:43;;;;;;;8.65;5.05;;;20.50;99.90;;;;;;5065460;28;20482;-86
2023/08/19 03:27:09;;;;;;;6.68;4.05;;;20.50;99.90;;;;;;5077760;28;20123;-86
2023/08/19 03:29:36;;;;;;;5.57;4.05;;;20.40;99.90;;;;;;5075843;28;20028;-86
2023/08/19 03:32:11;;;;;;;7.25;4.20;;;20.50;99.90;;;;;;5062698;28;20032;-86
2023/08/19 03:34:37;;;;;;;9.18;4.25;;;20.50;99.90;;;;;;5077853;28;20036;-86
2023/08/19 03:37:04;;;;;;;5.97;3.95;;;20.50;99.90;;;;;;5062224;28;20544;-86
2023/08/19 03:39:29;;;;;;;7.38;4.22;;;20.50;99.90;;;;;;5076243;28;20025;-86
2023/08/19 03:41:55;;;;;;;11.07;4.00;;;20.50;99.90;;;;;;5063117;28;20024;-86
2023/08/19 03:44:21;;;;;;;9.18;4.10;;;20.50;99.90;;;;;;5077073;28;20078;-86
2023/08/19 03:46:46;;;;;;;7.57;3.85;;;20.60;99.90;;;;;;5080734;28;20055;-86
2023/08/19 03:49:12;;;;;;;10.75;4.20;;;20.60;99.90;;;;;;5058940;28;20036;-86
2023/08/19 03:51:38;;;;;;;6.45;4.32;;;20.60;99.90;;;;;;5065574;28;20016;-86
2023/08/19 03:54:04;;;;;;;6.03;4.20;;;20.70;99.90;;;;;;5077340;28;20164;-86
2023/08/19 03:56:29;;;;;;;7.53;4.50;;;20.70;99.90;;;;;;5065674;28;20040;-86
2023/08/19 03:59:21;;;;;;;8.35;3.92;;;20.70;99.90;;;;;;5062450;28;20024;-86
2023/08/19 04:01:47;;;;;;;8.05;4.78;;;20.70;99.90;;;;;;5060012;28;20031;-85
2023/08/19 04:04:16;;;;;;;10.80;4.57;;;20.80;99.90;;;;;;5057307;28;20760;-86
2023/08/19 04:06:41;;;;;;;7.07;3.80;;;20.80;99.90;;;;;;5065910;28;20032;-86
2023/08/19 04:09:08;;;;;;;11.40;4.32;;;20.80;99.90;;;;;;5076067;28;20025;-86
2023/08/19 04:11:36;;;;;;;5.78;3.92;;;20.80;99.90;;;;;;5059763;28;20029;-86
2023/08/19 04:14:02;;;;;;;6.93;4.10;;;20.80;99.90;;;;;;5061702;28;20349;-86
2023/08/19 04:16:27;;;;;;;7.30;4.15;;;20.80;99.90;;;;;;5062190;28;20031;-85
2023/08/19 04:18:53;;;;;;;6.75;4.47;;;20.80;99.90;;;;;;5079095;28;20024;-86
2023/08/19 04:21:19;;;;;;;11.38;4.22;;;20.70;99.90;;;;;;5079858;28;20016;-86
2023/08/19 04:23:44;;;;;;;5.43;4.03;;;20.80;99.90;;;;;;5073584;28;20052;-87
2023/08/19 04:26:10;;;;;;;5.70;4.55;;;20.80;99.90;;;;;;5064165;28;20022;-87
2023/08/19 04:28:37;;;;;;;6.65;4.43;;;20.80;99.90;;;;;;5065709;28;20038;-87
2023/08/19 04:31:08;;;;;;;7.32;4.50;;;20.70;99.90;;;;;;5072325;28;20028;-88
2023/08/19 04:33:54;;;;;;;6.67;4.20;;;20.60;99.90;;;;;;5076243;28;20028;-87
2023/08/19 04:36:21;;;;;;;8.40;4.60;;;20.60;99.90;;;;;;5063138;28;20024;-87
2023/08/19 04:39:24;;;;;;;8.05;4.30;;;20.50;99.90;;;;;;5062602;28;20092;-87
2023/08/19 04:41:53;;;;;;;9.07;4.25;;;20.40;99.90;;;;;;5083804;28;20024;-87
2023/08/19 04:44:20;;;;;;;8.82;4.63;;;20.40;99.90;;;;;;5079118;28;20112;-87
2023/08/19 04:46:46;;;;;;;9.52;4.55;;;20.30;99.90;;;;;;5061742;28;20052;-87
2023/08/19 04:49:12;;;;;;;6.80;4.20;;;20.30;99.90;;;;;;5080566;28;20032;-87
2023/08/19 04:51:38;;;;;;;7.38;4.50;;;20.30;99.90;;;;;;5064171;28;20122;-87
2023/08/19 04:54:04;;;;;;;6.28;4.03;;;20.30;99.90;;;;;;5059387;28;20021;-87
2023/08/19 04:56:30;;;;;;;8.40;4.30;;;20.30;99.90;;;;;;5069134;28;20536;-87
2023/08/19 04:59:00;;;;;;;7.78;4.20;;;20.30;99.90;;;;;;5062024;28;20029;-87
2023/08/19 05:01:44;;;;;;;8.07;4.18;;;20.30;99.90;;;;;;5071088;28;20023;-87
2023/08/19 05:04:13;;;;;;;7.97;4.03;;;20.30;99.90;;;;;;5077192;28;20376;-87
2023/08/19 05:06:39;;;;;;;14.45;4.47;;;20.30;99.90;;;;;;5071229;28;20031;-87
2023/08/19 05:09:05;;;;;;;28.20;5.88;;;20.30;99.90;;;;;;5063044;28;20039;-87
2023/08/19 05:11:46;;;;;;;7.20;4.88;;;20.30;99.90;;;;;;5083583;28;20032;-87
2023/08/19 05:14:12;;;;;;;12.32;5.78;;;20.30;99.90;;;;;;5066625;28;20024;-87
2023/08/19 05:16:38;;;;;;;7.57;4.47;;;20.40;99.90;;;;;;5082217;28;20047;-87
2023/08/19 05:19:18;;;;;;;11.05;4.60;;;20.40;99.90;;;;;;5083960;28;20020;-87
2023/08/19 05:21:51;;;;;;;12.77;4.20;;;20.40;99.90;;;;;;5065679;28;20024;-87
2023/08/19 05:24:18;;;;;;;9.43;4.32;;;20.40;99.90;;;;;;5062130;28;20037;-87
2023/08/19 05:26:44;;;;;;;9.05;4.70;;;20.40;99.90;;;;;;5059975;28;20032;-87
2023/08/19 05:29:11;;;;;;;9.15;4.38;;;20.40;99.90;;;;;;5085167;28;20112;-86
2023/08/19 05:31:38;;;;;;;7.72;4.50;;;20.60;99.90;;;;;;5064266;28;20064;-87
2023/08/19 05:34:06;;;;;;;9.55;4.57;;;20.70;99.90;;;;;;5062392;28;20479;-87
2023/08/19 05:36:31;;;;;;;7.78;4.45;;;20.80;99.90;;;;;;5065502;28;20032;-87
2023/08/19 05:38:57;;;;;;;6.82;4.35;;;20.80;99.90;;;;;;5064949;28;20082;-87
2023/08/19 05:41:23;;;;;;;5.20;4.05;;;20.90;99.90;;;;;;5083678;28;20092;-88
2023/08/19 05:44:20;;;;;;;9.00;4.28;;;21.00;99.90;;;;;;5083721;28;20028;-87
2023/08/19 05:46:45;;;;;;;5.72;3.97;;;21.00;99.90;;;;;;5063591;28;20039;-87
2023/08/19 05:49:11;;;;;;;11.40;4.63;;;21.10;99.90;;;;;;5065577;28;20036;-87
2023/08/19 05:51:36;;;;;;;10.45;4.03;;;21.20;99.90;;;;;;5064568;28;20028;-87
2023/08/19 05:54:02;;;;;;;8.88;3.85;;;21.30;99.90;;;;;;5076297;28;20032;-87
2023/08/19 05:56:40;;;;;;;5.40;4.60;;;21.30;99.90;;;;;;5065855;28;20122;-88
2023/08/19 05:59:06;;;;;;;12.70;4.47;;;21.40;99.90;;;;;;5077323;28;20122;-88
2023/08/19 06:01:32;;;;;;;5.72;4.07;;;21.50;99.90;;;;;;5068790;28;20126;-87
2023/08/19 06:03:57;;;;;;;6.68;3.80;;;21.70;99.90;;;;;;5053906;28;20040;-87
2023/08/19 06:06:23;;;;;;;8.02;3.78;;;21.90;99.90;;;;;;5090661;28;20033;-88
2023/08/19 06:08:49;;;;;;;8.07;4.18;;;22.10;99.90;;;;;;5069065;28;20028;-88
2023/08/19 06:11:14;;;;;;;6.72;3.88;;;22.20;99.90;;;;;;5059137;28;20024;-87
2023/08/19 06:13:40;;;;;;;6.55;3.65;;;22.30;99.90;;;;;;5078633;28;20416;-87
2023/08/19 06:16:06;;;;;;;6.32;3.72;;;22.40;99.90;;;;;;5063533;28;20024;-87
2023/08/19 06:18:32;;;;;;;9.90;3.80;;;22.40;99.90;;;;;;5078311;28;20016;-88
2023/08/19 06:20:59;;;;;;;19.30;5.18;;;22.60;99.90;;;;;;5082022;28;20004;-87
2023/08/19 06:23:25;;;;;;;7.82;4.18;;;22.70;99.90;;;;;;5058400;28;20028;-88
2023/08/19 06:25:52;;;;;;;13.23;3.63;;;22.70;99.90;;;;;;5061215;28;20035;-87
2023/08/19 06:28:19;;;;;;;7.40;3.65;;;22.90;99.90;;;;;;5061091;28;20029;-88
2023/08/19 06:30:46;;;;;;;5.10;3.50;;;22.90;99.90;;;;;;5059342;28;20031;-87
2023/08/19 06:33:12;;;;;;;7.75;3.90;;;23.00;99.90;;;;;;5080050;28;20089;-87
2023/08/19 06:35:38;;;;;;;8.40;3.80;;;23.00;99.90;;;;;;5080457;28;20066;-87
2023/08/19 06:38:15;;;;;;;5.53;3.97;;;23.20;99.90;;;;;;5063462;28;20089;-87
2023/08/19 06:40:54;;;;;;;5.78;3.80;;;23.20;99.90;;;;;;5057381;28;20365;-88
2023/08/19 06:43:23;;;;;;;7.50;3.67;;;23.30;99.90;;;;;;5075730;28;20029;-87
2023/08/19 06:45:49;;;;;;;6.22;3.80;;;23.40;99.90;;;;;;5061995;28;20472;-87
2023/08/19 06:48:16;;;;;;;6.68;4.22;;;23.40;99.90;;;;;;5075796;28;20023;-88
2023/08/19 06:50:42;;;;;;;7.80;3.75;;;23.50;99.90;;;;;;5064738;28;20487;-87
2023/08/19 06:53:10;;;;;;;4.47;3.45;;;23.60;99.90;;;;;;5058248;28;20531;-87
2023/08/19 06:55:41;;;;;;;9.07;3.60;;;23.70;99.90;;;;;;5073820;28;20032;-87
2023/08/19 06:58:16;;;;;;;5.38;3.03;;;23.70;99.90;;;;;;5064215;28;20032;-88
2023/08/19 07:00:44;;;;;;;7.32;3.67;;;23.70;99.90;;;;;;5058345;28;20147;-87
2023/08/19 07:03:12;;;;;;;5.88;3.50;;;23.80;99.90;;;;;;5074369;28;20029;-87
2023/08/19 07:05:39;;;;;;;6.03;3.38;;;23.90;99.90;;;;;;5074173;28;20031;-87
2023/08/19 07:08:09;;;;;;;9.07;3.60;;;24.00;99.90;;;;;;5069316;28;20024;-86
2023/08/19 07:10:36;;;;;;;6.68;3.28;;;24.10;99.90;;;;;;5056500;28;20082;-86
2023/08/19 07:13:03;;;;;;;10.15;3.53;;;24.20;99.90;;;;;;5058424;28;20153;-86
2023/08/19 07:15:29;;;;;;;7.95;3.70;;;24.20;99.90;;;;;;5059978;28;20032;-86
2023/08/19 07:17:59;;;;;;;7.00;3.20;;;24.30;99.90;;;;;;5060171;28;20063;-86
2023/08/19 07:20:25;;;;;;;8.87;3.93;;;24.30;99.90;;;;;;5073931;28;20016;-86
2023/08/19 07:22:52;;;;;;;5.95;3.60;;;24.40;99.90;;;;;;5056542;28;20052;-86
2023/08/19 07:25:22;;;;;;;8.85;3.30;;;24.50;99.90;;;;;;5073220;28;20054;-86
2023/08/19 07:27:49;;;;;;;5.82;3.40;;;24.50;99.90;;;;;;5058502;28;20040;-87
2023/08/19 07:30:15;;;;;;;10.63;4.25;;;24.50;99.90;;;;;;5077291;28;20036;-87
2023/08/19 07:32:41;;;;;;;6.45;3.33;;;24.60;99.90;;;;;;5072551;28;20028;-87
2023/08/19 07:35:07;;;;;;;10.20;3.25;;;24.60;99.90;;;;;;5061499;28;20035;-86
2023/08/19 07:37:34;;;;;;;7.22;3.65;;;24.70;99.90;;;;;;5056764;28;20472;-86
2023/08/19 07:40:00;;;;;;;6.47;3.45;;;24.70;99.90;;;;;;5074640;28;20025;-86
2023/08/19 07:42:29;;;;;;;7.55;3.13;;;24.70;99.90;;;;;;5056335;28;20093;-86
2023/08/19 07:44:54;;;;;;;10.32;3.90;;;24.80;99.90;;;;;;5071733;28;20039;-86
2023/08/19 07:47:20;;;;;;;9.02;4.03;;;24.80;99.90;;;;;;5058394;28;20029;-86
2023/08/19 07:49:46;;;;;;;11.55;3.70;;;24.90;99.90;;;;;;5076519;28;20040;-87
2023/08/19 07:52:12;;;;;;;5.35;3.35;;;24.90;99.90;;;;;;5072582;28;20032;-86
2023/08/19 07:54:38;;;;;;;7.75;3.38;;;25.00;99.90;;;;;;5072062;28;20036;-87
2023/08/19 07:57:03;;;;;;;9.05;3.38;;;25.10;99.90;;;;;;5056170;28;20111;-86
2023/08/19 07:59:29;;;;;;;10.05;3.75;;;25.20;99.90;;;;;;5059320;28;20024;-87
2023/08/19 08:01:55;;;;;;;5.95;3.15;;;25.30;99.90;;;;;;5056026;28;20033;-86
2023/08/19 08:04:24;;;;;;;15.32;3.70;;;25.30;99.90;;;;;;5057239;28;20100;-87
2023/08/19 08:06:50;;;;;;;4.20;3.50;;;25.40;99.90;;;;;;5055632;28;20032;-88
2023/08/19 08:09:16;;;;;;;5.20;3.40;;;25.50;99.90;;;;;;5072710;28;20107;-87
2023/08/19 08:11:45;;;;;;;6.50;3.30;;;25.60;99.90;;;;;;5072010;28;20055;-87
2023/08/19 08:14:11;;;;;;;7.35;3.30;;;25.60;99.90;;;;;;5072836;28;20024;-87
2023/08/19 08:16:36;;;;;;;11.48;4.05;;;25.70;99.90;;;;;;5055974;28;20357;-87
2023/08/19 08:19:02;;;;;;;12.10;3.53;;;25.80;99.90;;;;;;5055699;28;20498;-87
2023/08/19 08:21:28;;;;;;;5.97;4.22;;;26.00;99.90;;;;;;5059602;28;20039;-87
2023/08/19 08:23:54;;;;;;;8.00;3.53;;;26.20;99.90;;;;;;5075418;28;20533;-87
2023/08/19 08:26:21;;;;;;;7.90;3.88;;;26.40;99.90;;;;;;5078979;28;20119;-87
2023/08/19 08:28:46;;;;;;;8.52;3.78;;;26.40;99.90;;;;;;5048952;28;20041;-87
2023/08/19 08:31:12;;;;;;;11.98;3.85;;;26.50;99.90;;;;;;5067526;28;20028;-87
2023/08/19 08:33:38;;;;;;;7.65;3.90;;;26.60;99.90;;;;;;5061127;28;20358;-87
2023/08/19 08:36:04;;;;;;;8.80;3.85;;;26.60;99.90;;;;;;5081663;28;20032;-87
2023/08/19 08:38:29;;;;;;;7.38;4.22;;;26.70;99.90;;;;;;5078061;28;20025;-87
2023/08/19 08:41:02;;;;;;;9.60;4.03;;;26.70;99.90;;;;;;5066341;28;20033;-86
2023/08/19 08:43:32;;;;;;;8.32;3.65;;;26.60;99.90;;;;;;5078582;28;20043;-86
2023/08/19 08:45:59;;;;;;;12.02;3.50;;;26.70;99.90;;;;;;5077857;28;20060;-86
2023/08/19 08:48:28;;;;;;;8.38;3.80;;;26.60;99.90;;;;;;5080595;28;20463;-87
2023/08/19 08:50:55;;;;;;;12.70;4.40;;;26.50;99.90;;;;;;5046979;28;20388;-87
2023/08/19 08:53:21;;;;;;;10.77;3.88;;;26.40;99.90;;;;;;5070645;28;20059;-87
2023/08/19 08:55:48;;;;;;;8.50;3.60;;;26.50;99.90;;;;;;5055094;28;20391;-87
2023/08/19 08:58:14;;;;;;;8.73;3.22;;;27.10;99.90;;;;;;5061597;28;20080;-87
2023/08/19 09:00:40;;;;;;;10.20;3.72;;;28.20;99.90;;;;;;5077401;28;20036;-87
2023/08/19 09:03:09;;;;;;;10.82;3.42;;;29.60;99.90;;;;;;5067769;28;20705;-87
2023/08/19 09:05:38;;;;;;;11.30;3.58;;;31.00;99.90;;;;;;5063612;28;20465;-88
2023/08/19 09:08:11;;;;;;;5.10;2.85;;;32.50;99.90;;;;;;5064703;28;20035;-87
2023/08/19 09:10:37;;;;;;;9.27;3.10;;;33.70;99.90;;;;;;5067047;28;20122;-87
2023/08/19 09:13:05;;;;;;;8.05;3.08;;;33.70;99.90;;;;;;5066527;28;20031;-87
2023/08/19 09:15:49;;;;;;;10.25;3.50;;;33.80;99.90;;;;;;5076488;28;20082;-87
2023/08/19 09:18:17;;;;;;;8.93;3.17;;;33.60;99.90;;;;;;5055792;28;20116;-88
2023/08/19 09:20:44;;;;;;;6.63;3.45;;;34.00;99.90;;;;;;5078074;28;20732;-87
2023/08/19 09:23:10;;;;;;;7.22;3.05;;;34.00;99.50;;;;;;5076451;28;20111;-87
2023/08/19 09:25:50;;;;;;;7.50;3.60;;;34.80;99.00;;;;;;5079868;28;20052;-88
2023/08/19 09:28:17;;;;;;;9.85;3.13;;;36.00;97.70;;;;;;5076712;28;20032;-88
2023/08/19 09:30:43;;;;;;;5.13;3.28;;;36.80;95.90;;;;;;5060573;28;20091;-88
2023/08/19 09:33:13;;;;;;;9.55;3.28;;;37.40;94.30;;;;;;5058243;28;20491;-88
2023/08/19 09:35:39;;;;;;;;;;;37.90;94.10;;;;;;5075096;28;20033;-88
2023/08/19 09:38:05;;;;;;;10.52;3.40;;;37.70;92.50;;;;;;5063873;28;19966;-88
2023/08/19 09:40:31;;;;;;;5.43;3.17;;;37.30;91.60;;;;;;5057537;28;20140;-87
2023/08/19 09:42:58;;;;;;;6.72;3.65;;;37.30;91.70;;;;;;5075406;28;20059;-88
2023/08/19 09:45:28;;;;;;;9.50;3.75;;;36.70;91.70;;;;;;5076742;28;20067;-88
2023/08/19 09:47:54;;;;;;;7.13;3.28;;;35.80;91.20;;;;;;5059099;28;20033;-87
2023/08/19 09:50:24;;;;;;;5.43;3.10;;;34.80;92.90;;;;;;5057741;28;20029;-88
2023/08/19 09:52:56;;;;;;;14.45;3.10;;;34.90;94.20;;;;;;5074616;28;20032;-88
2023/08/19 09:55:26;;;;;;;8.30;3.78;;;35.00;93.70;;;;;;5058016;28;20040;-88
2023/08/19 09:57:52;;;;;;;6.70;3.30;;;35.20;93.60;;;;;;5075224;28;20510;-87
2023/08/19 10:00:18;;;;;;;7.13;3.60;;;34.60;93.80;;;;;;5056992;28;20024;-87
2023/08/19 10:02:44;;;;;;;6.72;3.30;;;34.50;93.40;;;;;;5074580;28;20028;-87
2023/08/19 10:05:10;;;;;;;5.97;3.20;;;34.10;93.40;;;;;;5058165;28;20033;-88
2023/08/19 10:07:39;;;;;;;7.50;3.47;;;33.60;93.90;;;;;;5070774;28;20119;-87
2023/08/19 10:10:07;;;;;;;11.45;3.95;;;33.80;94.10;;;;;;5072931;28;20027;-87
2023/08/19 10:12:40;;;;;;;8.85;3.58;;;33.50;94.60;;;;;;5074083;28;20028;-87
2023/08/19 10:15:38;;;;;;;8.05;3.67;;;33.50;95.40;;;;;;5059898;28;20039;-87
2023/08/19 10:18:17;;;;;;;6.03;3.47;;;33.20;93.80;;;;;;5071661;28;20020;-87
2023/08/19 10:20:45;;;;;;;9.00;3.63;;;33.20;94.60;;;;;;5073416;28;20063;-88
2023/08/19 10:23:14;;;;;;;6.20;3.30;;;33.70;92.10;;;;;;5074094;28;20125;-88
2023/08/19 10:25:42;;;;;;;8.80;3.58;;;34.20;92.80;;;;;;5078122;28;20021;-88
2023/08/19 10:28:11;;;;;;;9.30;4.05;;;34.80;91.60;;;;;;5078940;28;20036;-88
2023/08/19 10:30:37;;;;;;;10.95;3.63;;;35.30;90.30;;;;;;5070761;28;20021;-88
2023/08/19 10:33:36;;;;;;;6.00;3.33;;;35.70;92.70;;;;;;5064728;28;20031;-88
2023/08/19 10:36:07;;;;;;;8.60;3.33;;;36.10;92.30;;;;;;5062940;28;20063;-88
2023/08/19 10:38:46;;;;;;;10.35;3.25;;;36.10;91.30;;;;;;5082208;28;20035;-88
2023/08/19 10:41:20;;;;;;;6.47;3.50;;;36.30;91.70;;;;;;5078188;28;20035;-88
2023/08/19 10:43:56;;;;;;;7.32;3.53;;;35.80;91.40;;;;;;5080915;28;20078;-89
2023/08/19 10:46:45;;;;;;;11.85;3.40;;;35.30;90.40;;;;;;5064446;28;20072;-88
2023/08/19 10:49:23;;;;;;;14.32;3.80;;;35.00;91.80;;;;;;5059744;28;20035;-88
2023/08/19 10:51:57;;;;;;;10.57;3.33;;;34.80;91.10;;;;;;5073669;28;20498;-88
2023/08/19 10:54:35;;;;;;;5.47;3.35;;;34.70;91.50;;;;;;5080613;28;20459;-88
2023/08/19 10:57:16;;;;;;;5.90;3.38;;;34.20;91.90;;;;;;5064379;28;20490;-87
2023/08/19 10:59:47;;;;;;;8.85;3.25;;;34.40;91.90;;;;;;5084587;28;20058;-89
2023/08/19 11:02:29;;;;;;;9.13;3.20;;;35.00;92.00;;;;;;5062490;28;20028;-88
2023/08/19 11:05:26;;;;;;;10.38;3.95;;;35.30;90.00;;;;;;5076427;28;20421;-88
2023/08/19 11:07:52;;;;;;;7.85;4.00;;;34.70;89.20;;;;;;5066542;28;20751;-87
2023/08/19 11:10:19;;;;;;;5.93;3.58;;;34.40;91.50;;;;;;5063491;28;20043;-87
2023/08/19 11:12:45;;;;;;;15.38;4.30;;;34.50;91.40;;;;;;5064445;28;20483;-87
2023/08/19 11:15:11;;;;;;;9.70;3.75;;;34.40;91.10;;;;;;5061739;28;20546;-88
2023/08/19 11:17:37;;;;;;;8.07;4.38;;;34.10;92.10;;;;;;5066374;28;20039;-88
2023/08/19 11:20:10;;;;;;;14.23;4.38;;;34.20;91.50;;;;;;5062604;28;20021;-87
2023/08/19 11:22:42;;;;;;;8.95;3.85;;;34.20;91.70;;;;;;5060757;28;20028;-87
2023/08/19 11:25:37;;;;;;;8.25;3.65;;;34.60;92.60;;;;;;5064098;28;20124;-88
2023/08/19 11:28:03;;;;;;;12.90;3.67;;;35.40;91.70;;;;;;5079467;28;20029;-88
2023/08/19 11:30:30;;;;;;;8.13;3.58;;;34.60;91.70;;;;;;5067769;28;20097;-88
2023/08/19 11:32:56;;;;;;;10.70;3.83;;;34.70;91.40;;;;;;5063497;28;20475;-87
2023/08/19 11:35:22;;;;;;;6.40;3.95;;;34.00;91.80;;;;;;5061910;28;20032;-87
2023/08/19 11:37:48;;;;;;;6.95;4.32;;;33.80;91.90;;;;;;5080147;28;20025;-87
2023/08/19 11:40:19;;;;;;;8.05;4.40;;;33.20;92.60;;;;;;5079143;28;20068;-88
2023/08/19 11:42:44;;;;;;;12.45;4.32;;;33.80;92.60;;;;;;5082089;28;20111;-88
2023/08/19 11:45:10;;;;;;;15.10;4.32;;;34.70;92.20;;;;;;5065376;28;20424;-88
2023/08/19 11:47:45;;;;;;;7.72;4.05;;;34.10;91.00;;;;;;5059407;28;20552;-88
2023/08/19 11:50:11;;;;;;;10.35;4.15;;;34.30;91.00;;;;;;5081805;28;20027;-88
2023/08/19 11:52:37;;;;;;;10.07;4.65;;;34.50;89.60;;;;;;5081858;28;20146;-88
2023/08/19 11:55:06;;;;;;;11.43;4.47;;;35.10;89.40;;;;;;5061775;28;20031;-87
2023/08/19 11:57:36;;;;;;;16.50;4.20;;;35.50;90.00;;;;;;5086828;28;20452;-88
2023/08/19 12:00:04;;;;;;;;;;;35.80;87.80;;;;;;5055864;28;20032;-88
2023/08/19 12:02:39;;;;;;;10.02;3.95;;;35.00;86.20;;;;;;5064186;28;20275;-87
2023/08/19 12:05:05;;;;;;;18.75;4.43;;;34.40;87.10;;;;;;5049203;28;20472;-87
2023/08/19 12:07:30;;;;;;;10.52;4.18;;;34.60;86.60;;;;;;5070913;28;20085;-87
2023/08/19 12:09:57;;;;;;;9.80;4.10;;;35.00;85.20;;;;;;5053693;28;20491;-88
2023/08/19 12:12:32;;;;;;;9.00;4.20;;;34.60;81.80;;;;;;5058742;28;20482;-86
2023/08/19 12:14:58;;;;;;;13.13;4.50;;;33.10;87.40;;;;;;5057905;28;20024;-86
2023/08/19 12:17:24;;;;;;;9.98;4.53;;;32.40;89.10;;;;;;5064209;28;20048;-87
2023/08/19 12:19:49;;;;;;;13.98;4.30;;;32.10;91.60;;;;;;5067038;28;20039;-87
2023/08/19 12:22:15;;;;;;;9.82;4.65;;;31.90;92.30;;;;;;5067921;28;20020;-88
2023/08/19 12:24:41;;;;;;;8.60;4.50;;;31.70;91.80;;;;;;5067887;28;20031;-88
2023/08/19 12:27:08;;;;;;;12.75;4.38;;;31.40;91.80;;;;;;5060129;28;20029;-88
2023/08/19 12:29:35;;;;;;;9.65;4.45;;;31.20;92.50;;;;;;5056255;28;20028;-88
2023/08/19 12:32:31;;;;;;;11.93;5.13;;;31.30;92.90;;;;;;5072851;28;20032;-87
2023/08/19 12:34:57;;;;;;;13.15;5.13;;;31.50;93.00;;;;;;5066494;28;20057;-88
2023/08/19 12:37:23;;;;;;;11.60;4.93;;;31.60;93.00;;;;;;5069756;28;20407;-87
2023/08/19 12:39:48;;;;;;;11.27;5.18;;;31.50;94.00;;;;;;5074091;28;20028;-87
2023/08/19 12:42:14;;;;;;;8.48;4.82;;;31.10;94.70;;;;;;5055744;28;20028;-87
2023/08/19 12:44:40;;;;;;;8.23;5.03;;;30.90;95.20;;;;;;5056093;28;20029;-87
2023/08/19 12:47:05;;;;;;;14.38;5.32;;;30.80;96.50;;;;;;5056141;28;20029;-87
2023/08/19 12:49:31;;;;;;;11.02;4.43;;;30.70;96.50;;;;;;5056232;28;20037;-87
2023/08/19 12:51:57;;;;;;;13.77;5.47;;;30.60;95.80;;;;;;5053443;28;20032;-87
2023/08/19 12:54:22;;;;;;;10.07;4.93;;;30.40;94.40;;;;;;5056007;28;20066;-87